Time;durP1;ratioP1;P1;durP2;ratioP2;P2;SDS_P1;SDS_P2;PMS_P1;PMS_P2;Temp;Humidity;BMP_temperature;BMP_pressure;BME280_temperature;BME280_humidity;BME280_pressure;Samples;Min_cycle;Max_cycle;Signal;HPM_P1;HPM_P2
2023/06/12 00:01:49;;;;;;;;;;;;;;;21.63;44.72;100160.41;41877986;28;19928;-72
2023/06/12 00:21:49;;;;;;;;;;;;;;;21.56;44.58;100154.81;41859607;28;19935;-71
2023/06/12 00:41:49;;;;;;;;;;;;;;;21.37;44.69;100144.94;41874405;28;19994;-71
2023/06/12 01:01:50;;;;;;;;;;;;;;;21.20;44.45;100145.44;41855934;28;19939;-71
2023/06/12 01:21:52;;;;;;;;;;;;;;;21.13;44.34;100144.28;41859845;28;20023;-71
2023/06/12 01:41:53;;;;;;;;;;;;;;;21.01;44.26;100138.22;41868044;28;19935;-69
2023/06/12 02:01:53;;;;;;;;;;;;;;;20.87;44.46;100131.44;41857720;28;19943;-72
2023/06/12 02:21:56;;;;;;;;;;;;;;;20.71;44.60;100140.50;41699307;28;20420;-71
2023/06/12 02:41:56;;;;;;;;;;;;;;;20.64;44.05;100141.94;41657154;28;19925;-71
2023/06/12 03:01:56;;;;;;;;;;;;;;;20.54;44.60;100154.97;41682554;28;20012;-71
2023/06/12 03:21:57;;;;;;;;;;;;;;;20.43;44.81;100161.13;41831143;28;19982;-71
2023/06/12 03:41:57;;;;;;;;;;;;;;;20.30;44.64;100155.94;41823334;28;20640;-71
2023/06/12 04:01:58;;;;;;;;;;;;;;;20.29;44.81;100171.84;41870753;28;19940;-72
2023/06/12 04:22:00;;;;;;;;;;;;;;;20.28;44.46;100165.75;41848338;28;19932;-71
2023/06/12 04:42:01;;;;;;;;;;;;;;;20.51;44.55;100171.03;41813216;28;20410;-74
2023/06/12 05:02:02;;;;;;;;;;;;;;;20.63;43.95;100171.88;41801287;28;19939;-76
2023/06/12 05:22:03;;;;;;;;;;;;;;;20.98;44.23;100168.25;41835662;28;20063;-71
2023/06/12 05:42:03;;;;;;;;;;;;;;;21.32;44.39;100181.31;41850706;28;20343;-73
2023/06/12 06:02:04;;;;;;;;;;;;;;;21.52;44.09;100184.13;41826299;28;20467;-72
2023/06/12 06:22:04;;;;;;;;;;;;;;;21.71;43.63;100194.03;41851511;28;20410;-73
2023/06/12 06:42:05;;;;;;;;;;;;;;;21.88;41.31;100189.97;41815879;28;19925;-73
2023/06/12 07:02:05;;;;;;;;;;;;;;;22.02;38.92;100191.44;41811435;28;20371;-73
2023/06/12 07:22:06;;;;;;;;;;;;;;;22.17;37.76;100202.53;41806810;28;19929;-72
2023/06/12 07:42:06;;;;;;;;;;;;;;;22.26;37.53;100190.34;41810291;28;19928;-72
2023/06/12 08:02:07;;;;;;;;;;;;;;;22.35;37.85;100186.91;41856139;28;20287;-71
2023/06/12 08:22:07;;;;;;;;;;;;;;;22.45;37.13;100185.19;41863228;28;19935;-71
2023/06/12 08:42:08;;;;;;;;;;;;;;;22.54;37.04;100188.84;41857676;28;20405;-70
2023/06/12 09:02:10;;;;;;;;;;;;;;;22.63;36.81;100189.84;41864163;28;19940;-73
2023/06/12 09:22:11;;;;;;;;;;;;;;;22.53;38.18;100182.75;41683033;28;20344;-73
2023/06/12 09:42:13;;;;;;;;;;;;;;;22.55;37.70;100188.69;41672935;28;19924;-74
2023/06/12 10:02:15;;;;;;;;;;;;;;;22.61;38.68;100175.97;41656978;28;19948;-73
2023/06/12 10:22:16;;;;;;;;;;;;;;;22.67;38.94;100181.53;41805235;28;20417;-73
2023/06/12 10:42:17;;;;;;;;;;;;;;;22.80;39.91;100159.34;41815717;28;19932;-73
2023/06/12 11:02:17;;;;;;;;;;;;;;;22.96;39.08;100145.63;41817356;28;19924;-75
2023/06/12 11:22:18;;;;;;;;;;;;;;;23.11;40.44;100120.50;41869861;28;20611;-74
2023/06/12 11:42:18;;;;;;;;;;;;;;;23.32;38.17;100117.72;41862126;28;19933;-74
2023/06/12 12:02:19;;;;;;;;;;;;;;;23.43;38.08;100113.28;41849559;28;20430;-73
2023/06/12 12:22:20;;;;;;;;;;;;;;;23.55;36.71;100111.34;41830092;28;19989;-71
2023/06/12 12:42:20;;;;;;;;;;;;;;;23.71;36.18;100100.19;41814861;28;20619;-72
2023/06/12 13:02:20;;;;;;;;;;;;;;;23.86;36.53;100080.22;41821149;28;20421;-73
2023/06/12 13:22:21;;;;;;;;;;;;;;;23.99;35.93;100074.66;41809579;28;19936;-72
2023/06/12 13:42:22;;;;;;;;;;;;;;;24.14;35.39;100067.91;41810586;28;19928;-73
2023/06/12 14:02:28;;;;;;;;;;;;;;;24.29;36.86;100062.13;41778525;28;19962;-72
2023/06/12 14:22:30;;;;;;;;;;;;;;;24.36;35.85;100054.44;41812102;28;19928;-74
2023/06/12 14:42:31;;;;;;;;;;;;;;;24.47;34.54;100062.16;41855104;28;19933;-77
2023/06/12 15:02:32;;;;;;;;;;;;;;;24.47;35.60;100059.50;41859788;28;19925;-75
2023/06/12 15:22:32;;;;;;;;;;;;;;;24.55;35.25;100064.91;41722594;28;19933;-74
2023/06/12 15:42:32;;;;;;;;;;;;;;;24.61;34.76;100066.97;41713599;28;19968;-74
2023/06/12 16:02:34;;;;;;;;;;;;;;;24.60;33.77;100069.75;41738372;28;20019;-75
2023/06/12 16:22:34;;;;;;;;;;;;;;;24.55;33.94;100072.03;41852285;28;19928;-76
2023/06/12 16:42:34;;;;;;;;;;;;;;;24.49;32.50;100088.50;41848639;28;19925;-73
2023/06/12 17:02:35;;;;;;;;;;;;;;;24.40;33.93;100112.22;41854070;28;19933;-74
2023/06/12 17:22:35;;;;;;;;;;;;;;;24.23;34.26;100132.34;41854234;28;20042;-74
2023/06/12 17:42:35;;;;;;;;;;;;;;;24.00;33.88;100139.81;41833616;28;19933;-77
2023/06/12 18:02:36;;;;;;;;;;;;;;;23.86;34.33;100164.00;41815449;28;19924;-73
2023/06/12 18:22:36;;;;;;;;;;;;;;;23.67;35.84;100173.66;41836597;28;19928;-75
2023/06/12 18:42:38;;;;;;;;;;;;;;;23.62;35.60;100179.34;41838111;28;19931;-73
2023/06/12 19:02:38;;;;;;;;;;;;;;;23.47;36.26;100207.16;41850415;28;20378;-75
2023/06/12 19:22:39;;;;;;;;;;;;;;;23.11;35.22;100236.69;41905348;28;19924;-75
2023/06/12 19:42:39;;;;;;;;;;;;;;;22.88;35.41;100256.38;41906893;28;19932;-77
2023/06/12 20:02:39;;;;;;;;;;;;;;;22.63;35.73;100263.75;41890868;28;19964;-74
2023/06/12 20:22:41;;;;;;;;;;;;;;;22.59;36.00;100264.97;41718565;28;20007;-75
2023/06/12 20:42:41;;;;;;;;;;;;;;;22.41;36.26;100256.81;41701844;28;19941;-75
2023/06/12 21:02:41;;;;;;;;;;;;;;;22.23;37.13;100267.94;41712147;28;19936;-74
2023/06/12 21:22:44;;;;;;;;;;;;;;;22.00;37.34;100269.84;41832018;28;19939;-76
2023/06/12 21:42:45;;;;;;;;;;;;;;;21.69;37.88;100267.09;41861755;28;19924;-72
2023/06/12 22:02:45;;;;;;;;;;;;;;;21.81;37.99;100244.16;41845907;28;19928;-73
2023/06/12 22:22:47;;;;;;;;;;;;;;;21.83;38.24;100226.44;41862119;28;20374;-71
2023/06/12 22:42:48;;;;;;;;;;;;;;;21.82;38.21;100245.84;41867147;28;19924;-72
2023/06/12 23:02:50;;;;;;;;;;;;;;;21.72;37.47;100217.59;41884522;28;19926;-73
2023/06/12 23:22:53;;;;;;;;;;;;;;;21.61;37.40;100222.09;41900435;28;20094;-74
2023/06/12 23:42:54;;;;;;;;;;;;;;;21.46;37.98;100205.69;41887871;28;19928;-72
